Time;durP1;ratioP1;P1;durP2;ratioP2;P2;SDS_P1;SDS_P2;PMS_P1;PMS_P2;Temp;Humidity;BMP_temperature;BMP_pressure;BME280_temperature;BME280_humidity;BME280_pressure;Samples;Min_cycle;Max_cycle;Signal;HPM_P1;HPM_P2
2022/04/21 00:01:49;0.00;0.00;0.62;0.00;0.00;0.62;;;;;13.90;1.00;;;;;;2280678;60;1074;-87
2022/04/21 00:04:16;43829.00;0.15;76.51;0.00;0.00;0.62;;;;;14.30;1.00;;;;;;2280746;60;1042;-88
2022/04/21 00:06:44;118367.00;0.39;205.27;0.00;0.00;0.62;;;;;14.30;1.00;;;;;;2280807;60;942;-91
2022/04/21 00:09:11;27683.00;0.09;48.57;0.00;0.00;0.62;;;;;14.10;1.00;;;;;;2280609;60;1911;-89
2022/04/21 00:11:39;44769.00;0.15;78.14;0.00;0.00;0.62;;;;;14.10;1.00;;;;;;2280515;60;1094;-87
2022/04/21 00:14:06;54060.00;0.18;94.21;0.00;0.00;0.62;;;;;14.40;1.00;;;;;;2280819;60;1037;-88
2022/04/21 00:16:33;16429.00;0.05;29.09;0.00;0.00;0.62;;;;;14.30;1.00;;;;;;2280740;60;1118;-88
2022/04/21 00:19:00;171257.00;0.57;296.43;0.00;0.00;0.62;;;;;14.30;1.00;;;;;;2280556;60;1382;-88
2022/04/21 00:26:24;341539.00;1.14;589.32;0.00;0.00;0.62;;;;;13.80;1.00;;;;;;2278330;61;1402;-89
2022/04/21 00:28:52;55793.00;0.19;97.20;0.00;0.00;0.62;;;;;13.30;1.00;;;;;;2276580;61;1913;-87
2022/04/21 00:31:19;103895.00;0.35;180.29;0.00;0.00;0.62;;;;;13.50;1.00;;;;;;2276570;61;1083;-88
2022/04/21 00:33:46;103551.00;0.35;179.70;0.00;0.00;0.62;;;;;13.30;1.00;;;;;;2276484;61;1023;-89
2022/04/21 00:36:13;30054.00;0.10;52.68;0.00;0.00;0.62;;;;;13.60;1.00;;;;;;2276456;61;861;-90
2022/04/21 00:38:40;29680.00;0.10;52.03;0.00;0.00;0.62;;;;;13.40;1.00;;;;;;2276411;61;1292;-90
2022/04/21 00:41:07;16835.00;0.06;29.79;0.00;0.00;0.62;;;;;12.80;1.00;;;;;;2276169;61;933;-88
2022/04/21 00:43:35;8936.00;0.03;16.11;0.00;0.00;0.62;;;;;12.60;1.00;;;;;;2276450;61;1122;-88
2022/04/21 00:46:06;28751.00;0.10;50.42;0.00;0.00;0.62;;;;;12.50;1.00;;;;;;2286353;55;3743;-86
2022/04/21 00:48:33;54955.00;0.18;95.75;0.00;0.00;0.62;;;;;12.20;1.00;;;;;;2280450;61;2008;-88
2022/04/21 00:51:00;96856.00;0.32;168.14;0.00;0.00;0.62;;;;;11.90;1.00;;;;;;2280509;61;1649;-89
2022/04/21 00:53:27;0.00;0.00;0.62;0.00;0.00;0.62;;;;;12.50;1.00;;;;;;2280481;61;1010;-88
2022/04/21 00:55:55;80816.00;0.27;140.45;0.00;0.00;0.62;;;;;12.80;1.00;;;;;;2280467;61;1098;-89
2022/04/21 00:58:22;44326.00;0.15;77.37;0.00;0.00;0.62;;;;;13.20;1.00;;;;;;2280656;61;1024;-89
2022/04/21 01:00:49;0.00;0.00;0.62;0.00;0.00;0.62;;;;;12.80;1.00;;;;;;2280528;61;971;-88
2022/04/21 01:03:17;0.00;0.00;0.62;0.00;0.00;0.62;;;;;12.40;1.00;;;;;;2280647;61;892;-89
2022/04/21 01:05:43;0.00;0.00;0.62;0.00;0.00;0.62;;;;;12.30;1.00;;;;;;2280528;61;1257;-89
2022/04/21 01:08:10;16660.00;0.06;29.49;0.00;0.00;0.62;;;;;12.40;1.00;;;;;;2280586;61;1075;-88
2022/04/21 01:10:41;59126.00;0.20;102.97;0.00;0.00;0.62;;;;;12.80;1.00;;;;;;2280309;61;1928;-90
2022/04/21 01:13:09;41868.00;0.14;73.12;0.00;0.00;0.62;;;;;13.20;1.00;;;;;;2280550;61;1687;-89
2022/04/21 01:15:37;10324.00;0.03;18.51;0.00;0.00;0.62;;;;;13.70;1.00;;;;;;2280430;61;1596;-89
2022/04/21 01:18:05;121404.00;0.40;210.50;0.00;0.00;0.62;;;;;14.10;1.00;;;;;;2280442;61;911;-88
2022/04/21 01:20:34;141805.00;0.47;245.68;0.00;0.00;0.62;;;;;14.10;1.00;;;;;;2280290;61;1325;-89
2022/04/21 01:23:01;185338.00;0.62;320.68;0.00;0.00;0.62;;;;;13.80;1.00;;;;;;2280463;61;1364;-89
2022/04/21 01:25:28;4052.00;0.01;7.64;0.00;0.00;0.62;;;;;13.50;1.00;;;;;;2280412;61;1047;-88
2022/04/21 01:27:59;106153.00;0.35;184.19;0.00;0.00;0.62;;;;;13.80;1.00;;;;;;2280484;61;1079;-89
2022/04/21 01:30:26;45267.00;0.15;79.00;0.00;0.00;0.62;;;;;14.00;1.00;;;;;;2280443;61;1936;-89
2022/04/21 01:32:53;134253.00;0.45;232.66;0.00;0.00;0.62;;;;;14.20;1.00;;;;;;2280512;61;1013;-88
2022/04/21 01:35:20;30124.00;0.10;52.80;0.00;0.00;0.62;;;;;13.60;1.00;;;;;;2280559;61;1586;-89
2022/04/21 01:43:17;179340.00;0.60;310.35;14089.00;0.05;25.03;;;;;13.40;1.00;;;;;;2280436;61;682;-88
2022/04/21 01:45:44;118853.00;0.40;206.10;50265.00;0.17;87.64;;;;;13.30;1.00;;;;;;2298314;55;3790;-89
2022/04/21 01:48:11;23595.00;0.08;41.50;0.00;0.00;0.62;;;;;13.20;1.00;;;;;;2311596;55;3805;-85
2022/04/21 01:50:38;98924.00;0.33;171.71;0.00;0.00;0.62;;;;;12.80;1.00;;;;;;2282151;55;3668;-87
2022/04/21 01:53:07;183090.00;0.61;316.81;0.00;0.00;0.62;;;;;12.50;1.00;;;;;;2280282;61;1106;-88
2022/04/21 01:55:34;20854.00;0.07;36.75;0.00;0.00;0.62;;;;;12.90;1.00;;;;;;2280238;61;1279;-88
2022/04/21 02:03:23;253460.00;0.84;437.90;0.00;0.00;0.62;;;;;13.10;1.00;;;;;;2277810;61;1391;-88
2022/04/21 02:05:50;86976.00;0.29;151.09;0.00;0.00;0.62;;;;;13.30;1.00;;;;;;2276301;61;1093;-89
2022/04/21 02:08:19;58841.00;0.20;102.47;0.00;0.00;0.62;;;;;12.90;1.00;;;;;;2276113;61;1487;-87
2022/04/21 02:10:46;214822.00;0.72;371.43;0.00;0.00;0.62;;;;;12.80;1.00;;;;;;2276024;61;2034;-89
2022/04/21 02:13:13;87906.00;0.29;152.69;0.00;0.00;0.62;;;;;12.60;1.00;;;;;;2311682;40;3572;-88
2022/04/21 02:18:09;255082.00;0.85;440.69;0.00;0.00;0.62;;;;;13.10;1.00;;;;;;2278079;61;1424;-87
2022/04/21 02:20:36;119374.00;0.40;207.00;0.00;0.00;0.62;;;;;13.60;1.00;;;;;;2275953;61;1336;-89
2022/04/21 02:23:03;8829.00;0.03;15.92;0.00;0.00;0.62;;;;;13.70;1.00;;;;;;2276215;61;1598;-90
2022/04/21 02:30:30;335908.00;1.12;579.64;0.00;0.00;0.62;;;;;13.50;1.00;;;;;;2274108;61;2141;-88
2022/04/21 02:40:27;282420.00;0.94;487.70;0.00;0.00;0.62;;;;;13.40;1.00;;;;;;2277899;61;1434;-88
2022/04/21 02:42:54;48050.00;0.16;83.81;0.00;0.00;0.62;;;;;13.20;1.00;;;;;;2280218;55;3785;-87
2022/04/21 02:45:21;54000.00;0.18;94.10;0.00;0.00;0.62;;;;;13.30;1.00;;;;;;2280171;61;1160;-88
2022/04/21 02:52:49;355486.00;1.18;613.29;0.00;0.00;0.62;;;;;13.40;1.00;;;;;;2277802;61;1397;-88
2022/04/21 02:58:02;19269.00;0.06;34.00;0.00;0.00;0.62;;;;;12.90;1.00;;;;;;2276121;61;609;-89
2022/04/21 03:07:58;367173.00;1.22;633.38;0.00;0.00;0.62;;;;;11.70;1.00;;;;;;2277244;61;1391;-87
2022/04/21 03:40:13;332245.00;1.11;573.34;22129.00;0.07;38.96;;;;;8.90;1.00;;;;;;2277975;60;1404;-88
2022/04/21 03:52:36;353225.00;1.18;609.40;0.00;0.00;0.62;;;;;8.90;1.00;;;;;;2278394;61;1405;-86
2022/04/21 03:57:38;182673.00;0.61;316.09;0.00;0.00;0.62;;;;;8.90;1.00;;;;;;2302866;39;3468;-88
2022/04/21 04:00:06;143447.00;0.48;248.51;0.00;0.00;0.62;;;;;8.50;1.00;;;;;;2318956;56;3762;-86
2022/04/21 04:24:56;217879.00;0.73;376.69;0.00;0.00;0.62;;;;;8.40;1.00;;;;;;2274338;61;1364;-88
2022/04/21 04:32:24;133946.00;0.45;232.13;0.00;0.00;0.62;;;;;7.40;1.00;;;;;;2274115;61;1411;-87
2022/04/21 04:34:51;66606.00;0.22;115.90;0.00;0.00;0.62;;;;;7.40;1.00;;;;;;2272485;61;940;-89
2022/04/21 04:37:18;523196.00;1.74;901.77;80945.00;0.27;140.67;;;;;7.10;1.00;;;;;;2274884;55;3755;-88
2022/04/21 04:42:20;391790.00;1.31;675.69;32614.00;0.11;57.11;;;;;7.10;1.00;;;;;;2277997;61;1429;-88
2022/04/21 04:44:48;25838.00;0.09;45.38;0.00;0.00;0.62;;;;;7.50;1.00;;;;;;2285802;39;3608;-88
2022/04/21 04:47:14;32534.00;0.11;56.97;0.00;0.00;0.62;;;;;8.00;1.00;;;;;;2292055;40;3599;-86
2022/04/21 04:49:42;112065.00;0.37;194.39;0.00;0.00;0.62;;;;;8.70;1.00;;;;;;2276152;61;1998;-88
2022/04/21 05:04:37;221101.00;0.74;382.24;0.00;0.00;0.62;;;;;9.10;1.00;;;;;;2277870;61;1222;-87
2022/04/21 05:07:05;126924.00;0.42;220.02;0.00;0.00;0.62;;;;;9.60;1.00;;;;;;2297776;56;3739;-85
2022/04/21 05:12:01;198072.00;0.66;342.60;0.00;0.00;0.62;;;;;10.90;1.00;;;;;;2273675;61;1420;-87
2022/04/21 05:26:53;179980.00;0.60;311.46;0.00;0.00;0.62;;;;;10.00;1.00;;;;;;2282038;61;1398;-86
2022/04/21 06:22:14;833899.00;2.78;1440.31;0.00;0.00;0.62;;;;;21.60;1.00;;;;;;2282587;61;1323;-90
2022/04/21 06:24:41;210877.00;0.70;364.64;0.00;0.00;0.62;;;;;21.60;1.00;;;;;;2356656;40;3628;-87
2022/04/21 06:27:08;139176.00;0.46;241.15;0.00;0.00;0.62;;;;;21.70;1.00;;;;;;2275976;61;1636;-87
2022/04/21 06:29:35;127746.00;0.43;221.44;0.00;0.00;0.62;;;;;21.70;1.00;;;;;;2276015;61;2000;-89
2022/04/21 06:32:03;0.00;0.00;0.62;0.00;0.00;0.62;;;;;22.20;1.00;;;;;;2276014;61;1711;-88
2022/04/21 06:34:32;66878.00;0.22;116.37;0.00;0.00;0.62;;;;;22.60;1.00;;;;;;2276317;61;991;-88
2022/04/21 06:36:59;105707.00;0.35;183.42;0.00;0.00;0.62;;;;;23.00;1.00;;;;;;2276305;61;1198;-87
2022/04/21 06:39:27;6378.00;0.02;11.67;0.00;0.00;0.62;;;;;23.30;1.00;;;;;;2276216;61;1305;-88
2022/04/21 06:41:54;0.00;0.00;0.62;0.00;0.00;0.62;;;;;23.60;1.00;;;;;;2276245;61;1029;-87
2022/04/21 06:49:49;217328.00;0.72;375.75;75375.00;0.25;131.05;;;;;23.20;1.00;;;;;;2270311;61;2002;-88
2022/04/21 06:52:16;166146.00;0.55;287.63;81008.00;0.27;140.78;;;;;23.60;1.00;;;;;;2276233;61;1816;-89
2022/04/21 06:54:45;331812.00;1.11;572.60;80795.00;0.27;140.41;;;;;24.30;1.00;;;;;;2275499;61;940;-87
2022/04/21 06:57:12;313984.00;1.05;541.96;91464.00;0.30;158.84;;;;;24.50;1.00;;;;;;2276185;61;1084;-86
2022/04/21 06:59:39;336324.00;1.12;580.36;93531.00;0.31;162.40;;;;;24.50;1.00;;;;;;2276240;61;1399;-88
2022/04/21 07:02:07;192477.00;0.64;332.97;84628.00;0.28;147.03;;;;;23.50;1.00;;;;;;2276282;61;1057;-87
2022/04/21 07:04:34;174178.00;0.58;301.46;84044.00;0.28;146.02;;;;;23.50;1.00;;;;;;2276261;61;1796;-87
2022/04/21 07:07:01;188780.00;0.63;326.61;81027.00;0.27;140.81;;;;;23.60;1.00;;;;;;2276114;61;1079;-86
2022/04/21 07:09:28;289083.00;0.96;499.15;56102.00;0.19;97.74;;;;;23.60;1.00;;;;;;2276435;61;2000;-88
2022/04/21 07:11:56;248953.00;0.83;430.15;79439.00;0.26;138.07;;;;;22.30;1.00;;;;;;2276922;61;1566;-87
2022/04/21 07:14:23;314799.00;1.05;543.36;106946.00;0.36;185.56;;;;;22.10;1.00;;;;;;2277031;61;1121;-87
2022/04/21 07:16:50;0.00;0.00;0.62;0.00;0.00;0.62;;;;;22.70;1.00;;;;;;2276983;61;1672;-88
2022/04/21 07:19:17;77228.00;0.26;134.25;0.00;0.00;0.62;;;;;23.50;1.00;;;;;;2276920;61;1449;-88
2022/04/21 07:21:44;0.00;0.00;0.62;0.00;0.00;0.62;;;;;23.70;1.00;;;;;;2277000;61;1082;-87
2022/04/21 07:24:11;27246.00;0.09;47.82;0.00;0.00;0.62;;;;;23.80;1.00;;;;;;2276918;61;1103;-88
2022/04/21 07:26:38;0.00;0.00;0.62;0.00;0.00;0.62;;;;;22.20;1.00;;;;;;2276881;61;1086;-87
2022/04/21 07:29:13;66599.00;0.22;115.88;0.00;0.00;0.62;;;;;22.70;1.00;;;;;;2288057;39;3677;-86
2022/04/21 07:31:42;311939.00;1.04;538.44;82119.00;0.27;142.70;;;;;21.60;1.00;;;;;;2282700;61;2014;-88
2022/04/21 07:34:08;536025.00;1.79;923.87;77908.00;0.26;135.42;;;;;22.10;1.00;;;;;;2280998;61;1109;-87
2022/04/21 07:36:35;634723.00;2.12;1094.21;155273.00;0.52;268.89;;;;;21.70;1.00;;;;;;2280944;61;1022;-87
2022/04/21 07:39:02;0.00;0.00;0.62;0.00;0.00;0.62;;;;;21.60;1.00;;;;;;2280827;61;1373;-86
2022/04/21 07:41:29;217183.00;0.72;375.50;57000.00;0.19;99.29;;;;;20.20;1.00;;;;;;2280558;61;1041;-86
2022/04/21 07:43:56;559059.00;1.86;963.58;46334.00;0.15;80.85;;;;;19.70;1.00;;;;;;2280587;61;1517;-87
2022/04/21 07:46:24;95971.00;0.32;166.62;0.00;0.00;0.62;;;;;20.20;1.00;;;;;;2280833;61;2214;-85
2022/04/21 07:51:35;198850.00;0.66;343.94;84588.00;0.28;146.96;;;;;20.10;1.00;;;;;;2280838;61;1991;-85
2022/04/21 07:54:01;315850.00;1.05;545.16;122359.00;0.41;212.15;;;;;20.40;1.00;;;;;;2280433;61;1139;-86
2022/04/21 07:56:28;80244.00;0.27;139.46;0.00;0.00;0.62;;;;;19.70;1.00;;;;;;2280319;61;1053;-85
2022/04/21 07:58:55;34858.00;0.12;60.99;0.00;0.00;0.62;;;;;20.00;1.00;;;;;;2280701;61;1301;-87
2022/04/21 08:01:22;32127.00;0.11;56.26;0.00;0.00;0.62;;;;;18.90;1.00;;;;;;2280858;61;1026;-86
2022/04/21 08:03:50;0.00;0.00;0.62;0.00;0.00;0.62;;;;;18.30;1.00;;;;;;2280890;61;1588;-88
2022/04/21 08:06:17;3689.00;0.01;7.01;0.00;0.00;0.62;;;;;18.30;1.00;;;;;;2280958;61;1128;-89
2022/04/21 08:08:44;32867.00;0.11;57.55;0.00;0.00;0.62;;;;;19.20;1.00;;;;;;2280939;61;1382;-86
2022/04/21 08:11:11;78809.00;0.26;136.98;0.00;0.00;0.62;;;;;19.20;1.00;;;;;;2280883;61;1992;-88
2022/04/21 08:13:38;67892.00;0.23;118.12;0.00;0.00;0.62;;;;;18.80;1.00;;;;;;2280958;61;1112;-86
2022/04/21 08:16:05;0.00;0.00;0.62;0.00;0.00;0.62;;;;;19.20;1.00;;;;;;2280958;61;1109;-88
2022/04/21 08:18:32;0.00;0.00;0.62;0.00;0.00;0.62;;;;;19.30;1.00;;;;;;2280901;61;1293;-87
2022/04/21 08:21:01;0.00;0.00;0.62;0.00;0.00;0.62;;;;;19.90;1.00;;;;;;2280679;61;1573;-89
2022/04/21 08:23:28;51072.00;0.17;89.04;0.00;0.00;0.62;;;;;18.90;1.00;;;;;;2280795;61;1691;-87
2022/04/21 08:34:19;0.00;0.00;0.62;0.00;0.00;0.62;;;;;18.00;1.00;;;;;;2275629;61;1104;-89
2022/04/21 08:36:47;0.00;0.00;0.62;0.00;0.00;0.62;;;;;18.40;1.00;;;;;;2276710;61;1064;-87
2022/04/21 08:39:14;172416.00;0.57;298.43;74038.00;0.25;128.74;;;;;18.80;1.00;;;;;;2276734;61;1285;-86
2022/04/21 08:41:48;26684.00;0.09;46.84;0.00;0.00;0.62;;;;;18.20;1.00;;;;;;2276691;61;1089;-86
2022/04/21 08:44:20;0.00;0.00;0.62;0.00;0.00;0.62;;;;;18.90;1.00;;;;;;2276708;61;1649;-86
2022/04/21 08:46:48;82510.00;0.28;143.37;0.00;0.00;0.62;;;;;18.60;1.00;;;;;;2276742;61;1102;-85
2022/04/21 08:49:17;67042.00;0.22;116.65;0.00;0.00;0.62;;;;;18.30;1.00;;;;;;2276566;61;1789;-86
2022/04/21 08:51:44;0.00;0.00;0.62;0.00;0.00;0.62;;;;;17.30;1.00;;;;;;2276623;61;1917;-86
2022/04/21 08:54:13;162858.00;0.54;281.96;0.00;0.00;0.62;;;;;17.30;1.00;;;;;;2276646;61;1278;-86
2022/04/21 08:56:40;0.00;0.00;0.62;0.00;0.00;0.62;;;;;17.90;1.00;;;;;;2276729;61;1038;-87
2022/04/21 08:59:07;0.00;0.00;0.62;0.00;0.00;0.62;;;;;18.20;1.00;;;;;;2276520;61;1497;-88
2022/04/21 09:01:34;123895.00;0.41;214.80;0.00;0.00;0.62;;;;;18.60;1.00;;;;;;2276672;61;1102;-86
2022/04/21 09:04:01;0.00;0.00;0.62;0.00;0.00;0.62;;;;;19.60;1.00;;;;;;2276690;61;1052;-87
2022/04/21 09:06:29;1402.00;0.00;3.05;0.00;0.00;0.62;;;;;20.20;1.00;;;;;;2276659;61;1052;-86
2022/04/21 09:09:16;0.00;0.00;0.62;0.00;0.00;0.62;;;;;19.30;1.00;;;;;;2276615;61;1371;-89
2022/04/21 09:11:44;285865.00;0.95;493.62;117435.00;0.39;203.66;;;;;18.60;1.00;;;;;;2276551;61;2002;-87
2022/04/21 09:14:16;168475.00;0.56;291.64;83296.00;0.28;144.73;;;;;19.00;1.00;;;;;;2276472;61;1028;-87
2022/04/21 09:16:43;255793.00;0.85;441.91;81838.00;0.27;142.21;;;;;19.10;1.00;;;;;;2276637;61;1122;-88
2022/04/21 09:19:10;138921.00;0.46;240.71;23553.00;0.08;41.42;;;;;18.40;1.00;;;;;;2276580;61;2309;-88
2022/04/21 09:21:38;250310.00;0.83;432.48;49995.00;0.17;87.18;;;;;17.90;1.00;;;;;;2276573;61;1645;-90
2022/04/21 09:24:22;96848.00;0.32;168.13;0.00;0.00;0.62;;;;;17.10;1.00;;;;;;2276673;61;1429;-87
2022/04/21 09:26:49;24997.00;0.08;43.92;0.00;0.00;0.62;;;;;16.90;1.00;;;;;;2276589;61;1044;-88
2022/04/21 09:29:24;161245.00;0.54;279.18;0.00;0.00;0.62;;;;;16.40;1.00;;;;;;2276523;61;1289;-86
2022/04/21 09:31:57;53264.00;0.18;92.83;0.00;0.00;0.62;;;;;16.90;1.00;;;;;;2280384;61;1977;-87
2022/04/21 09:34:24;188428.00;0.63;326.00;87787.00;0.29;152.49;;;;;17.60;1.00;;;;;;2280550;61;1690;-87
2022/04/21 09:36:54;133740.00;0.45;231.78;0.00;0.00;0.62;;;;;17.60;1.00;;;;;;2280626;61;1027;-89
2022/04/21 09:39:23;0.00;0.00;0.62;0.00;0.00;0.62;;;;;17.70;1.00;;;;;;2280565;61;1289;-87
2022/04/21 09:41:53;10250.00;0.03;18.38;0.00;0.00;0.62;;;;;17.90;1.00;;;;;;2280631;61;1106;-87
2022/04/21 09:47:08;178178.00;0.59;308.35;84120.00;0.28;146.15;;;;;17.90;1.00;;;;;;2280613;61;650;-87
2022/04/21 09:49:37;256178.00;0.85;442.58;22111.00;0.07;38.93;;;;;17.20;1.00;;;;;;2280483;61;1383;-89
2022/04/21 09:52:05;0.00;0.00;0.62;0.00;0.00;0.62;;;;;16.90;1.00;;;;;;2280530;61;1989;-87
2022/04/21 09:54:33;185706.00;0.62;321.32;0.00;0.00;0.62;;;;;17.00;1.00;;;;;;2280560;61;978;-86
2022/04/21 09:57:02;0.00;0.00;0.62;0.00;0.00;0.62;;;;;17.30;1.00;;;;;;2280531;61;2368;-88
2022/04/21 09:59:35;69699.00;0.23;121.24;0.00;0.00;0.62;;;;;17.70;1.00;;;;;;2280454;61;1292;-88
2022/04/21 10:02:03;215699.00;0.72;372.94;0.00;0.00;0.62;;;;;17.80;1.00;;;;;;2280126;61;995;-85
2022/04/21 10:04:30;64854.00;0.22;112.87;0.00;0.00;0.62;;;;;17.70;1.00;;;;;;2280493;61;1124;-86
2022/04/21 10:06:58;0.00;0.00;0.62;0.00;0.00;0.62;;;;;17.60;1.00;;;;;;2280495;61;936;-87
2022/04/21 10:09:27;49319.00;0.16;86.01;0.00;0.00;0.62;;;;;17.60;1.00;;;;;;2280574;61;1403;-85
2022/04/21 10:11:58;0.00;0.00;0.62;0.00;0.00;0.62;;;;;17.20;1.00;;;;;;2280485;61;1913;-86
2022/04/21 10:14:26;51157.00;0.17;89.19;0.00;0.00;0.62;;;;;17.70;1.00;;;;;;2280463;61;1073;-86
2022/04/21 10:16:53;58343.00;0.19;101.61;0.00;0.00;0.62;;;;;18.00;1.00;;;;;;2280459;61;1196;-85
2022/04/21 10:19:24;0.00;0.00;0.62;0.00;0.00;0.62;;;;;17.60;1.00;;;;;;2280353;61;1286;-87
2022/04/21 10:21:54;5011.00;0.02;9.30;0.00;0.00;0.62;;;;;17.60;1.00;;;;;;2280441;61;1582;-87
2022/04/21 10:24:23;158284.00;0.53;274.08;0.00;0.00;0.62;;;;;17.50;1.00;;;;;;2280444;61;1110;-86
2022/04/21 10:26:50;0.00;0.00;0.62;0.00;0.00;0.62;;;;;18.00;1.00;;;;;;2280443;61;1087;-86
2022/04/21 10:29:21;19230.00;0.06;33.94;0.00;0.00;0.62;;;;;18.00;1.00;;;;;;2279391;61;1620;-86
2022/04/21 10:31:56;122035.00;0.41;211.59;22348.00;0.07;39.34;;;;;18.00;1.00;;;;;;2276311;61;1998;-85
2022/04/21 10:34:34;239935.00;0.80;414.64;885.00;0.00;2.15;;;;;17.80;1.00;;;;;;2276470;61;1150;-88
2022/04/21 10:37:12;45407.00;0.15;79.24;0.00;0.00;0.62;;;;;17.60;1.00;;;;;;2276392;61;1090;-85
2022/04/21 10:39:40;0.00;0.00;0.62;0.00;0.00;0.62;;;;;17.30;1.00;;;;;;2276330;61;1415;-85
2022/04/21 10:42:18;75650.00;0.25;131.52;0.00;0.00;0.62;;;;;17.40;1.00;;;;;;2276363;61;1102;-84
2022/04/21 10:44:48;63913.00;0.21;111.24;0.00;0.00;0.62;;;;;17.10;1.00;;;;;;2276370;61;1148;-85
2022/04/21 10:47:36;7165.00;0.02;13.04;0.00;0.00;0.62;;;;;16.80;1.00;;;;;;2276362;61;1113;-85
2022/04/21 10:50:14;195280.00;0.65;337.80;7893.00;0.03;14.30;;;;;16.50;1.00;;;;;;2276338;61;1372;-86
2022/04/21 10:58:53;0.00;0.00;0.62;0.00;0.00;0.62;;;;;16.90;1.00;;;;;;2276450;61;674;-87
2022/04/21 11:01:31;0.00;0.00;0.62;0.00;0.00;0.62;;;;;17.20;1.00;;;;;;2276195;61;1059;-86
2022/04/21 11:04:28;12029.00;0.04;21.46;0.00;0.00;0.62;;;;;17.40;1.00;;;;;;2276285;61;1121;-86
2022/04/21 11:07:09;88155.00;0.29;153.12;0.00;0.00;0.62;;;;;17.20;1.00;;;;;;2276289;61;1222;-86
2022/04/21 11:09:41;0.00;0.00;0.62;0.00;0.00;0.62;;;;;16.90;1.00;;;;;;2276247;61;1409;-86
2022/04/21 11:12:11;138156.00;0.46;239.39;0.00;0.00;0.62;;;;;17.30;1.00;;;;;;2276273;61;1981;-84
2022/04/21 11:14:40;0.00;0.00;0.62;0.00;0.00;0.62;;;;;17.40;1.00;;;;;;2276222;61;1132;-85
2022/04/21 11:17:10;71681.00;0.24;124.67;0.00;0.00;0.62;;;;;17.90;1.00;;;;;;2276092;61;1114;-86
2022/04/21 11:19:44;163371.00;0.54;282.85;51956.00;0.17;90.57;;;;;17.90;1.00;;;;;;2275899;61;1427;-85
2022/04/21 11:22:13;151664.00;0.51;262.68;50534.00;0.17;88.11;;;;;17.40;1.00;;;;;;2276184;61;1118;-83
2022/04/21 11:25:03;52123.00;0.17;90.86;0.00;0.00;0.62;;;;;17.30;1.00;;;;;;2276099;61;1097;-85
2022/04/21 11:27:31;122924.00;0.41;213.13;0.00;0.00;0.62;;;;;16.90;1.00;;;;;;2276147;61;1023;-87
2022/04/21 11:30:03;758339.00;2.53;1308.56;90813.00;0.30;157.71;;;;;17.10;1.00;;;;;;2276064;61;1364;-86
2022/04/21 11:32:31;823393.00;2.74;1421.95;87950.00;0.29;152.77;;;;;17.30;1.00;;;;;;2275941;61;2024;-85
2022/04/21 11:35:00;638851.00;2.13;1101.35;12675.00;0.04;22.58;;;;;17.20;1.00;;;;;;2276137;61;1997;-85
2022/04/21 11:37:44;1355236.00;4.52;2373.56;95697.00;0.32;166.14;;;;;17.10;1.00;;;;;;2276058;61;1071;-86
2022/04/21 11:40:23;700302.00;2.33;1207.76;53444.00;0.18;93.14;;;;;17.20;1.00;;;;;;2275989;61;1373;-85
2022/04/21 11:42:51;742304.00;2.47;1280.68;41329.00;0.14;72.19;;;;;16.90;1.00;;;;;;2276189;61;1154;-85
2022/04/21 11:45:22;891480.00;2.97;1541.16;167039.00;0.56;289.17;;;;;16.80;1.00;;;;;;2276258;61;1110;-86
2022/04/21 11:47:51;716325.00;2.39;1235.56;89146.00;0.30;154.83;;;;;16.80;1.00;;;;;;2276218;61;1105;-86
2022/04/21 11:50:26;1203681.00;4.01;2096.88;162287.00;0.54;280.98;;;;;17.10;1.00;;;;;;2276005;61;1595;-86
2022/04/21 11:52:54;784550.00;2.62;1354.19;20738.00;0.07;36.55;;;;;17.10;1.00;;;;;;2276034;61;1923;-86
2022/04/21 11:55:25;499949.00;1.67;861.74;64205.00;0.21;111.75;;;;;17.10;1.00;;;;;;2276495;61;1111;-85
2022/04/21 11:57:52;1147905.00;3.83;1996.31;129764.00;0.43;224.92;;;;;17.00;1.00;;;;;;2276871;61;1174;-86
2022/04/21 12:06:28;857670.00;2.86;1481.89;126841.00;0.42;219.88;;;;;17.10;1.00;;;;;;2276804;61;1274;-90
2022/04/21 12:08:48;0.00;0.00;0.62;0.00;0.00;0.62;;;;;17.20;1.00;;;;;;2276869;61;1436;-86
2022/04/21 12:11:18;236695.00;0.79;409.07;0.00;0.00;0.62;;;;;17.20;1.00;;;;;;2276890;61;1923;-88
2022/04/21 12:13:46;381543.00;1.27;658.08;10316.00;0.03;18.50;;;;;17.40;1.00;;;;;;2276646;61;1522;-86
2022/04/21 12:16:39;657459.00;2.19;1133.54;67361.00;0.22;117.20;;;;;17.10;1.00;;;;;;2276811;61;1162;-89
2022/04/21 12:19:28;508699.00;1.70;876.80;53319.00;0.18;92.93;;;;;17.30;1.00;;;;;;2276745;61;1364;-86
2022/04/21 12:21:57;0.00;0.00;0.62;0.00;0.00;0.62;;;;;17.30;1.00;;;;;;2276739;61;1192;-85
2022/04/21 12:24:30;5130.00;0.02;9.51;0.00;0.00;0.62;;;;;17.40;1.00;;;;;;2276727;61;1155;-85
2022/04/21 12:26:58;79919.00;0.27;138.90;0.00;0.00;0.62;;;;;17.70;1.00;;;;;;2276760;61;1190;-86
2022/04/21 12:29:27;0.00;0.00;0.62;0.00;0.00;0.62;;;;;18.30;1.00;;;;;;2276742;61;1396;-87
2022/04/21 12:31:56;0.00;0.00;0.62;0.00;0.00;0.62;;;;;18.10;1.00;;;;;;2276800;61;1989;-86
2022/04/21 12:34:27;126771.00;0.42;219.76;30166.00;0.10;52.87;;;;;17.60;1.00;;;;;;2276675;61;1662;-86
2022/04/21 12:36:57;72942.00;0.24;126.84;0.00;0.00;0.62;;;;;18.00;1.00;;;;;;2276506;61;1112;-84
2022/04/21 12:39:25;271834.00;0.91;469.50;0.00;0.00;0.62;;;;;18.30;1.00;;;;;;2276630;61;1393;-85
2022/04/21 12:41:54;5026.00;0.02;9.33;0.00;0.00;0.62;;;;;18.10;1.00;;;;;;2276479;61;1125;-83
2022/04/21 12:44:23;81043.00;0.27;140.84;0.00;0.00;0.62;;;;;17.90;1.00;;;;;;2276407;61;1471;-86
2022/04/21 12:47:01;182520.00;0.61;315.83;18820.00;0.06;33.23;;;;;17.90;1.00;;;;;;2276754;61;1251;-85
2022/04/21 12:49:52;0.00;0.00;0.62;0.00;0.00;0.62;;;;;17.70;1.00;;;;;;2276711;61;1594;-88
2022/04/21 12:52:37;0.00;0.00;0.62;0.00;0.00;0.62;;;;;17.70;1.00;;;;;;2276726;61;1910;-87
2022/04/21 12:55:10;49576.00;0.17;86.45;0.00;0.00;0.62;;;;;18.00;1.00;;;;;;2276420;61;1557;-84
2022/04/21 12:57:38;146547.00;0.49;253.86;79531.00;0.27;138.23;;;;;17.90;1.00;;;;;;2276639;61;1051;-87
2022/04/21 13:00:07;46514.00;0.16;81.16;0.00;0.00;0.62;;;;;17.80;1.00;;;;;;2276656;61;1356;-86
2022/04/21 13:02:34;63368.00;0.21;110.30;0.00;0.00;0.62;;;;;18.10;1.00;;;;;;2276696;61;1120;-87
2022/04/21 13:05:03;269737.00;0.90;465.89;35915.00;0.12;62.82;;;;;18.00;1.00;;;;;;2276630;61;1082;-85
2022/04/21 13:07:30;3764.00;0.01;7.14;0.00;0.00;0.62;;;;;18.20;1.00;;;;;;2276404;61;1072;-87
2022/04/21 13:09:58;25836.00;0.09;45.37;0.00;0.00;0.62;;;;;18.10;1.00;;;;;;2276656;61;1381;-86
2022/04/21 13:12:25;0.00;0.00;0.62;0.00;0.00;0.62;;;;;17.90;1.00;;;;;;2276520;61;1986;-85
2022/04/21 13:14:52;22450.00;0.07;39.51;0.00;0.00;0.62;;;;;18.20;1.00;;;;;;2276679;61;1136;-85
2022/04/21 13:17:19;17007.00;0.06;30.09;0.00;0.00;0.62;;;;;18.20;1.00;;;;;;2276537;61;961;-86
2022/04/21 13:19:46;2952.00;0.01;5.74;0.00;0.00;0.62;;;;;18.80;1.00;;;;;;2276149;61;1284;-85
2022/04/21 13:22:13;8677.00;0.03;15.66;0.00;0.00;0.62;;;;;18.80;1.00;;;;;;2276548;61;1184;-87
2022/04/21 13:24:40;0.00;0.00;0.62;0.00;0.00;0.62;;;;;18.70;1.00;;;;;;2276433;61;1029;-86
2022/04/21 13:27:07;44517.00;0.15;77.70;0.00;0.00;0.62;;;;;18.80;1.00;;;;;;2276637;61;1098;-86
2022/04/21 13:29:34;14167.00;0.05;25.17;0.00;0.00;0.62;;;;;18.70;1.00;;;;;;2276465;61;1269;-87
2022/04/21 13:34:45;0.00;0.00;0.62;0.00;0.00;0.62;;;;;19.10;1.00;;;;;;2276672;61;602;-86
2022/04/21 13:37:14;0.00;0.00;0.62;0.00;0.00;0.62;;;;;18.70;1.00;;;;;;2276613;61;940;-88
2022/04/21 13:39:41;0.00;0.00;0.62;0.00;0.00;0.62;;;;;18.50;1.00;;;;;;2276501;61;1935;-86
2022/04/21 13:42:09;22392.00;0.07;39.41;0.00;0.00;0.62;;;;;19.00;1.00;;;;;;2276425;61;1044;-85
2022/04/21 13:44:36;85972.00;0.29;149.35;0.00;0.00;0.62;;;;;18.90;1.00;;;;;;2276526;61;1091;-85
2022/04/21 13:47:05;0.00;0.00;0.62;0.00;0.00;0.62;;;;;18.90;1.00;;;;;;2276546;61;1009;-88
2022/04/21 13:49:32;0.00;0.00;0.62;0.00;0.00;0.62;;;;;19.00;1.00;;;;;;2276471;61;1391;-88
2022/04/21 13:51:59;215547.00;0.72;372.68;0.00;0.00;0.62;;;;;18.80;1.00;;;;;;2276522;61;1997;-87
2022/04/21 13:54:27;33932.00;0.11;59.39;0.00;0.00;0.62;;;;;18.60;1.00;;;;;;2276490;61;1082;-87
2022/04/21 13:56:54;0.00;0.00;0.62;0.00;0.00;0.62;;;;;18.70;1.00;;;;;;2276327;61;935;-85
2022/04/21 13:59:22;76603.00;0.26;133.17;0.00;0.00;0.62;;;;;18.70;1.00;;;;;;2276548;61;1394;-87
2022/04/21 14:01:49;43705.00;0.15;76.30;0.00;0.00;0.62;;;;;18.30;1.00;;;;;;2276438;61;1000;-86
2022/04/21 14:04:16;0.00;0.00;0.62;0.00;0.00;0.62;;;;;18.50;1.00;;;;;;2276464;61;2038;-88
2022/04/21 14:06:44;812.00;0.00;2.03;0.00;0.00;0.62;;;;;19.40;1.00;;;;;;2276467;61;1136;-87